Time,TemperatureF,DewpointF,PressureIn,WindDirection,WindDirectionDegrees,WindSpeedMPH,WindSpeedGustMPH,Humidity,HourlyPrecipIn,Conditions,Clouds,dailyrainin,SolarRadiationWatts/m^2,SoftwareType,DateUTC
2013-06-05 00:00:00,55.0,40.5,30.06,North,0,0.0,0.0,58,0.00,,CLR,0.00,0.00,VWS V14.01,2013-06-05 04:00:00,
2013-06-05 00:01:00,55.0,40.5,30.06,North,0,0.0,0.0,58,0.00,,CLR,0.00,0.00,VWS V14.01,2013-06-05 04:01:00,
2013-06-05 00:05:00,54.7,40.7,30.06,North,0,0.0,0.0,59,0.00,,CLR,0.00,0.00,VWS V14.01,2013-06-05 04:05:00,
2013-06-05 00:06:00,54.7,40.7,30.06,North,0,0.0,0.0,59,0.00,,CLR,0.00,0.00,VWS V14.01,2013-06-05 04:06:00,
2013-06-05 00:10:00,54.4,40.0,30.06,North,0,0.0,0.0,58,0.00,,CLR,0.00,0.00,VWS V14.01,2013-06-05 04:10:00,
2013-06-05 00:11:00,54.4,40.0,30.06,North,0,0.0,0.0,58,0.00,,CLR,0.00,0.00,VWS V14.01,2013-06-05 04:11:00,
2013-06-05 00:15:00,54.2,39.8,30.06,North,0,0.0,0.0,58,0.00,,CLR,0.00,0.00,VWS V14.01,2013-06-05 04:15:00,
2013-06-05 00:16:00,54.2,39.3,30.06,North,0,0.0,0.0,57,0.00,,CLR,0.00,0.00,VWS V14.01,2013-06-05 04:16:00,
2013-06-05 00:20:00,54.4,38.6,30.06,North,0,0.0,0.0,55,0.00,,CLR,0.00,0.00,VWS V14.01,2013-06-05 04:20:00,
2013-06-05 00:21:00,54.5,38.7,30.06,North,0,2.0,2.0,55,0.00,,CLR,0.00,0.00,VWS V14.01,2013-06-05 04:21:00,
2013-06-05 00:25:00,54.7,37.9,30.06,North,0,0.0,0.0,53,0.00,,CLR,0.00,0.00,VWS V14.01,2013-06-05 04:25:00,
2013-06-05 00:26:00,54.8,37.0,30.06,North,0,0.0,0.0,51,0.00,,CLR,0.00,0.00,VWS V14.01,2013-06-05 04:26:00,
2013-06-05 00:30:00,55.6,38.3,30.05,North,0,3.0,4.0,52,0.00,,CLR,0.00,0.00,VWS V14.01,2013-06-05 04:30:00,
2013-06-05 00:31:00,55.9,38.5,30.05,North,0,4.0,5.0,52,0.00,,CLR,0.00,0.00,VWS V14.01,2013-06-05 04:31:00,
2013-06-05 00:35:00,55.9,41.3,30.05,North,0,6.0,6.0,58,0.00,,CLR,0.00,0.00,VWS V14.01,2013-06-05 04:35:00,
2013-06-05 00:36:00,55.7,41.6,30.05,North,0,2.0,6.0,59,0.00,,CLR,0.00,0.00,VWS V14.01,2013-06-05 04:36:00,
2013-06-05 00:40:00,55.7,42.0,30.05,North,0,2.0,5.0,60,0.00,,CLR,0.00,0.00,VWS V14.01,2013-06-05 04:40:00,
2013-06-05 00:41:00,55.7,42.0,30.05,North,0,2.0,3.0,60,0.00,,CLR,0.00,0.00,VWS V14.01,2013-06-05 04:41:00,
2013-06-05 00:45:00,55.7,42.0,30.05,North,0,0.0,3.0,60,0.00,,CLR,0.00,0.00,VWS V14.01,2013-06-05 04:45:00,
2013-06-05 00:46:00,55.7,42.5,30.05,North,0,0.0,0.0,61,0.00,,CLR,0.00,0.00,VWS V14.01,2013-06-05 04:46:00,
2013-06-05 00:50:00,55.4,41.3,30.05,North,0,4.0,4.0,59,0.00,,CLR,0.00,0.00,VWS V14.01,2013-06-05 04:50:00,
2013-06-05 00:51:00,55.6,41.5,30.05,North,0,2.0,4.0,59,0.00,,CLR,0.00,0.00,VWS V14.01,2013-06-05 04:51:00,
2013-06-05 00:55:00,55.3,39.0,30.05,North,0,1.0,3.0,54,0.00,,CLR,0.00,0.00,VWS V14.01,2013-06-05 04:55:00,
2013-06-05 00:56:00,55.3,37.5,30.05,North,0,2.0,3.0,51,0.00,,CLR,0.00,0.00,VWS V14.01,2013-06-05 04:56:00,
2013-06-05 01:00:00,55.6,36.2,30.05,North,0,2.0,5.0,48,0.00,,CLR,0.00,0.00,VWS V14.01,2013-06-05 05:00:00,
2013-06-05 01:01:00,55.7,35.8,30.05,North,0,1.0,3.0,47,0.00,,CLR,0.00,0.00,VWS V14.01,2013-06-05 05:01:00,
2013-06-05 01:05:00,56.2,36.8,30.05,North,0,2.0,3.0,48,0.00,,CLR,0.00,0.00,VWS V14.01,2013-06-05 05:05:00,
2013-06-05 01:06:00,56.2,35.7,30.05,North,0,5.0,5.0,46,0.00,,CLR,0.00,0.00,VWS V14.01,2013-06-05 05:06:00,
2013-06-05 01:10:00,56.3,36.9,30.05,North,0,4.0,5.0,48,0.00,,CLR,0.00,0.00,VWS V14.01,2013-06-05 05:10:00,
2013-06-05 01:11:00,56.5,37.6,30.05,North,0,2.0,5.0,49,0.00,,CLR,0.00,0.00,VWS V14.01,2013-06-05 05:11:00,
2013-06-05 01:15:00,56.3,38.4,30.04,North,0,2.0,6.0,51,0.00,,CLR,0.00,0.00,VWS V14.01,2013-06-05 05:15:00,
2013-06-05 01:16:00,56.3,38.4,30.04,North,0,3.0,6.0,51,0.00,,CLR,0.00,0.00,VWS V14.01,2013-06-05 05:16:00,
2013-06-05 01:20:00,56.2,38.8,30.04,North,0,3.0,6.0,52,0.00,,CLR,0.00,0.00,VWS V14.01,2013-06-05 05:20:00,
2013-06-05 01:22:00,56.0,38.2,30.04,North,0,5.0,5.0,51,0.00,,CLR,0.00,0.00,VWS V14.01,2013-06-05 05:22:00,
2013-06-05 01:25:00,56.0,39.1,30.04,North,0,3.0,5.0,53,0.00,,CLR,0.00,0.00,VWS V14.01,2013-06-05 05:25:00,
2013-06-05 01:27:00,55.9,39.0,30.04,North,0,2.0,4.0,53,0.00,,CLR,0.00,0.00,VWS V14.01,2013-06-05 05:27:00,
2013-06-05 01:30:00,56.0,38.2,30.05,North,3,0.0,4.0,51,0.00,,CLR,0.00,0.00,VWS V14.01,2013-06-05 05:30:00,
2013-06-05 01:32:00,55.9,37.5,30.05,North,3,0.0,0.0,50,0.00,,CLR,0.00,0.00,VWS V14.01,2013-06-05 05:32:00,
2013-06-05 01:35:00,55.7,36.8,30.05,North,3,0.0,0.0,49,0.00,,CLR,0.00,0.00,VWS V14.01,2013-06-05 05:35:00,
2013-06-05 01:37:00,55.6,36.8,30.05,North,3,0.0,0.0,49,0.00,,CLR,0.00,0.00,VWS V14.01,2013-06-05 05:37:00,
2013-06-05 01:40:00,55.1,35.8,30.05,North,3,0.0,0.0,48,0.00,,CLR,0.00,0.00,VWS V14.01,2013-06-05 05:40:00,
2013-06-05 01:42:00,54.7,35.4,30.05,North,3,1.0,2.0,48,0.00,,CLR,0.00,0.00,VWS V14.01,2013-06-05 05:42:00,
2013-06-05 01:45:00,54.1,35.4,30.04,North,3,0.0,0.0,49,0.00,,CLR,0.00,0.00,VWS V14.01,2013-06-05 05:45:00,
2013-06-05 01:47:00,53.8,35.6,30.04,North,3,0.0,0.0,50,0.00,,CLR,0.00,0.00,VWS V14.01,2013-06-05 05:47:00,
2013-06-05 01:50:00,53.5,35.3,30.04,North,3,0.0,0.0,50,0.00,,CLR,0.00,0.00,VWS V14.01,2013-06-05 05:50:00,
2013-06-05 01:52:00,53.5,35.3,30.04,North,3,0.0,0.0,50,0.00,,CLR,0.00,0.00,VWS V14.01,2013-06-05 05:52:00,
2013-06-05 01:55:00,53.3,35.7,30.04,North,3,0.0,0.0,51,0.00,,CLR,0.00,0.00,VWS V14.01,2013-06-05 05:55:00,
2013-06-05 01:57:00,53.3,36.1,30.04,North,3,0.0,0.0,52,0.00,,CLR,0.00,0.00,VWS V14.01,2013-06-05 05:57:00,
2013-06-05 02:00:00,53.1,36.4,30.05,North,3,0.0,0.0,53,0.00,,CLR,0.00,0.00,VWS V14.01,2013-06-05 06:00:00,
2013-06-05 02:02:00,52.9,36.2,30.05,North,3,0.0,0.0,53,0.00,,CLR,0.00,0.00,VWS V14.01,2013-06-05 06:02:00,
2013-06-05 02:05:00,52.8,36.2,30.05,North,3,0.0,0.0,53,0.00,,CLR,0.00,0.00,VWS V14.01,2013-06-05 06:05:00,
2013-06-05 02:07:00,52.8,36.2,30.05,North,3,3.0,3.0,53,0.00,,CLR,0.00,0.00,VWS V14.01,2013-06-05 06:07:00,
2013-06-05 02:10:00,53.5,36.8,30.05,North,3,2.0,5.0,53,0.00,,CLR,0.00,0.00,VWS V14.01,2013-06-05 06:10:00,
2013-06-05 02:12:00,53.8,37.1,30.05,North,3,0.0,2.0,53,0.00,,CLR,0.00,0.00,VWS V14.01,2013-06-05 06:12:00,
2013-06-05 02:15:00,53.6,36.9,30.05,North,3,0.0,0.0,53,0.00,,CLR,0.00,0.00,VWS V14.01,2013-06-05 06:15:00,
2013-06-05 02:17:00,53.3,36.6,30.05,North,3,0.0,0.0,53,0.00,,CLR,0.00,0.00,VWS V14.01,2013-06-05 06:17:00,
2013-06-05 02:20:00,53.1,36.9,30.05,North,3,0.0,0.0,54,0.00,,CLR,0.00,0.00,VWS V14.01,2013-06-05 06:20:00,
2013-06-05 02:22:00,53.1,37.4,30.05,North,3,0.0,0.0,55,0.00,,CLR,0.00,0.00,VWS V14.01,2013-06-05 06:22:00,
2013-06-05 02:25:00,52.9,37.2,30.05,North,3,0.0,0.0,55,0.00,,CLR,0.00,0.00,VWS V14.01,2013-06-05 06:25:00,
2013-06-05 02:27:00,53.1,37.8,30.05,North,3,3.0,5.0,56,0.00,,CLR,0.00,0.00,VWS V14.01,2013-06-05 06:27:00,
2013-06-05 02:30:00,53.3,38.0,30.05,North,3,5.0,6.0,56,0.00,,CLR,0.00,0.00,VWS V14.01,2013-06-05 06:30:00,
2013-06-05 02:32:00,53.6,37.4,30.05,North,3,4.0,7.0,54,0.00,,CLR,0.00,0.00,VWS V14.01,2013-06-05 06:32:00,
2013-06-05 02:35:00,53.8,35.6,30.05,North,3,2.0,5.0,50,0.00,,CLR,0.00,0.00,VWS V14.01,2013-06-05 06:35:00,
2013-06-05 02:37:00,53.9,35.2,30.05,North,3,3.0,3.0,49,0.00,,CLR,0.00,0.00,VWS V14.01,2013-06-05 06:37:00,
2013-06-05 02:40:00,54.1,34.3,30.05,North,3,2.0,2.0,47,0.00,,CLR,0.00,0.00,VWS V14.01,2013-06-05 06:40:00,
2013-06-05 02:42:00,53.9,34.2,30.05,North,3,0.0,2.0,47,0.00,,CLR,0.00,0.00,VWS V14.01,2013-06-05 06:42:00,
2013-06-05 02:45:00,53.9,34.2,30.05,North,3,0.0,0.0,47,0.00,,CLR,0.00,0.00,VWS V14.01,2013-06-05 06:45:00,
2013-06-05 02:47:00,53.8,33.5,30.05,North,3,0.0,0.0,46,0.00,,CLR,0.00,0.00,VWS V14.01,2013-06-05 06:47:00,
2013-06-05 02:50:00,53.6,33.3,30.05,North,3,0.0,0.0,46,0.00,,CLR,0.00,0.00,VWS V14.01,2013-06-05 06:50:00,
2013-06-05 02:52:00,53.5,33.2,30.05,North,3,0.0,0.0,46,0.00,,CLR,0.00,0.00,VWS V14.01,2013-06-05 06:52:00,
2013-06-05 02:55:00,53.2,33.5,30.05,North,3,0.0,0.0,47,0.00,,CLR,0.00,0.00,VWS V14.01,2013-06-05 06:55:00,
2013-06-05 02:57:00,53.1,33.4,30.05,North,3,0.0,0.0,47,0.00,,CLR,0.00,0.00,VWS V14.01,2013-06-05 06:57:00,
2013-06-05 03:03:00,52.9,32.7,30.05,North,3,0.0,0.0,46,0.00,,CLR,0.00,0.00,VWS V14.01,2013-06-05 07:03:00,
2013-06-05 03:08:00,53.1,34.0,30.05,North,3,0.0,0.0,48,0.00,,CLR,0.00,0.00,VWS V14.01,2013-06-05 07:08:00,
2013-06-05 03:13:00,53.6,39.2,30.05,North,3,1.0,5.0,58,0.00,,CLR,0.00,0.00,VWS V14.01,2013-06-05 07:13:00,
2013-06-05 03:18:00,53.5,37.3,30.05,North,3,2.0,3.0,54,0.00,,CLR,0.00,0.00,VWS V14.01,2013-06-05 07:18:00,
2013-06-05 03:23:00,54.2,36.0,30.05,North,3,3.0,6.0,50,0.00,,CLR,0.00,0.00,VWS V14.01,2013-06-05 07:23:00,
2013-06-05 03:28:00,55.0,35.2,30.05,North,4,2.0,6.0,47,0.00,,CLR,0.00,0.00,VWS V14.01,2013-06-05 07:28:00,
2013-06-05 03:33:00,55.0,34.1,30.05,NNE,27,4.0,6.0,45,0.00,,CLR,0.00,0.00,VWS V14.01,2013-06-05 07:33:00,
2013-06-05 03:38:00,54.8,35.5,30.05,NNE,27,0.0,0.0,48,0.00,,CLR,0.00,0.00,VWS V14.01,2013-06-05 07:38:00,
2013-06-05 03:43:00,54.1,33.8,30.05,NNE,27,0.0,0.0,46,0.00,,CLR,0.00,0.00,VWS V14.01,2013-06-05 07:43:00,
2013-06-05 03:48:00,53.3,34.7,30.05,NNE,27,0.0,0.0,49,0.00,,CLR,0.00,0.00,VWS V14.01,2013-06-05 07:48:00,
2013-06-05 03:53:00,52.8,34.7,30.05,NNE,27,0.0,0.0,50,0.00,,CLR,0.00,0.00,VWS V14.01,2013-06-05 07:53:00,
2013-06-05 03:58:00,52.5,35.4,30.05,NNE,27,0.0,0.0,52,0.00,,CLR,0.00,0.00,VWS V14.01,2013-06-05 07:58:00,
2013-06-05 04:03:00,51.9,35.3,30.06,NNE,27,0.0,0.0,53,0.00,,CLR,0.00,0.00,VWS V14.01,2013-06-05 08:03:00,
2013-06-05 04:08:00,51.3,35.2,30.06,NNE,27,0.0,0.0,54,0.00,,CLR,0.00,0.00,VWS V14.01,2013-06-05 08:08:00,
2013-06-05 04:13:00,51.4,35.3,30.06,NNE,27,3.0,5.0,54,0.00,,CLR,0.00,0.00,VWS V14.01,2013-06-05 08:13:00,
2013-06-05 04:18:00,52.3,36.6,30.05,NNE,27,2.0,4.0,55,0.00,,CLR,0.00,0.00,VWS V14.01,2013-06-05 08:18:00,
2013-06-05 04:23:00,52.2,36.1,30.05,NNE,27,0.0,0.0,54,0.00,,CLR,0.00,0.00,VWS V14.01,2013-06-05 08:23:00,
2013-06-05 04:28:00,51.7,36.1,30.05,NNE,27,0.0,0.0,55,0.00,,CLR,0.00,0.00,VWS V14.01,2013-06-05 08:28:00,
2013-06-05 04:33:00,51.1,36.0,30.05,NNE,27,0.0,0.0,56,0.00,,CLR,0.00,0.00,VWS V14.01,2013-06-05 08:33:00,
2013-06-05 04:38:00,50.4,36.2,30.05,NNE,27,0.0,0.0,58,0.00,,CLR,0.00,0.00,VWS V14.01,2013-06-05 08:38:00,
2013-06-05 04:43:00,49.8,36.1,30.05,NNE,27,0.0,0.0,59,0.00,,CLR,0.00,0.00,VWS V14.01,2013-06-05 08:43:00,
2013-06-05 04:48:00,49.5,35.3,30.06,NNE,27,0.0,0.0,58,0.00,,CLR,0.00,0.00,VWS V14.01,2013-06-05 08:48:00,
2013-06-05 04:53:00,49.4,35.3,30.06,NNE,27,0.0,0.0,58,0.00,,CLR,0.00,0.00,VWS V14.01,2013-06-05 08:53:00,
2013-06-05 04:58:00,49.2,35.5,30.06,NNE,27,0.0,0.0,59,0.00,,CLR,0.00,0.00,VWS V14.01,2013-06-05 08:58:00,
2013-06-05 05:02:00,48.8,35.5,30.07,NNE,27,0.0,0.0,60,0.00,,CLR,0.00,0.00,VWS V14.01,2013-06-05 09:02:00,
2013-06-05 05:07:00,48.6,35.8,30.07,NNE,27,0.0,0.0,61,0.00,,CLR,0.00,0.00,VWS V14.01,2013-06-05 09:07:00,
2013-06-05 05:12:00,48.5,36.1,30.07,NNE,27,0.0,0.0,62,0.00,,CLR,0.00,0.00,VWS V14.01,2013-06-05 09:12:00,
2013-06-05 05:17:00,48.3,36.7,30.07,NNE,27,0.0,0.0,64,0.00,,CLR,0.00,0.00,VWS V14.01,2013-06-05 09:17:00,
2013-06-05 05:22:00,48.0,36.4,30.07,NNE,27,0.0,0.0,64,0.00,,CLR,0.00,0.00,VWS V14.01,2013-06-05 09:22:00,
2013-06-05 05:27:00,47.7,35.7,30.07,NNE,27,0.0,0.0,63,0.00,,CLR,0.00,0.00,VWS V14.01,2013-06-05 09:27:00,
2013-06-05 05:32:00,47.6,36.0,30.08,NNE,27,0.0,0.0,64,0.00,,CLR,0.00,0.00,VWS V14.01,2013-06-05 09:32:00,
2013-06-05 05:37:00,47.6,36.0,30.08,NNE,27,0.0,0.0,64,0.00,,CLR,0.00,0.00,VWS V14.01,2013-06-05 09:37:00,
2013-06-05 05:42:00,48.2,37.4,30.08,NNE,27,0.0,0.0,66,0.00,,CLR,0.00,0.00,VWS V14.01,2013-06-05 09:42:00,
2013-06-05 05:47:00,48.0,37.6,30.08,NNE,27,0.0,0.0,67,0.00,,CLR,0.00,5.00,VWS V14.01,2013-06-05 09:47:00,
2013-06-05 05:52:00,47.7,37.3,30.08,NNE,27,0.0,0.0,67,0.00,,CLR,0.00,9.00,VWS V14.01,2013-06-05 09:52:00,
2013-06-05 05:57:00,47.4,37.4,30.08,NNE,27,0.0,0.0,68,0.00,,CLR,0.00,14.00,VWS V14.01,2013-06-05 09:57:00,
2013-06-05 06:02:00,47.4,37.4,30.09,ENE,73,0.0,0.0,68,0.00,,CLR,0.00,16.00,VWS V14.01,2013-06-05 10:02:00,
2013-06-05 06:07:00,47.4,37.4,30.09,ENE,73,0.0,0.0,68,0.00,,CLR,0.00,18.00,VWS V14.01,2013-06-05 10:07:00,
2013-06-05 06:12:00,47.6,38.0,30.09,ENE,73,0.0,0.0,69,0.00,,CLR,0.00,19.00,VWS V14.01,2013-06-05 10:12:00,
2013-06-05 06:17:00,47.7,38.4,30.10,ENE,73,0.0,0.0,70,0.00,,CLR,0.00,21.00,VWS V14.01,2013-06-05 10:17:00,
2013-06-05 06:22:00,48.0,38.7,30.10,ENE,73,0.0,0.0,70,0.00,,CLR,0.00,37.00,VWS V14.01,2013-06-05 10:22:00,
2013-06-05 06:27:00,48.3,39.0,30.10,ENE,73,0.0,0.0,70,0.00,,CLR,0.00,37.00,VWS V14.01,2013-06-05 10:27:00,
2013-06-05 06:32:00,48.8,38.7,30.10,ENE,73,0.0,0.0,68,0.00,,CLR,0.00,121.00,VWS V14.01,2013-06-05 10:32:00,
2013-06-05 06:37:00,49.4,38.9,30.10,ENE,73,0.0,0.0,67,0.00,,CLR,0.00,135.00,VWS V14.01,2013-06-05 10:37:00,
2013-06-05 06:42:00,49.8,37.7,30.10,ENE,73,0.0,0.0,63,0.00,,CLR,0.00,146.00,VWS V14.01,2013-06-05 10:42:00,
2013-06-05 06:47:00,50.4,37.0,30.11,ENE,71,0.0,0.0,60,0.00,,CLR,0.00,160.00,VWS V14.01,2013-06-05 10:47:00,
2013-06-05 06:52:00,51.1,37.3,30.11,ENE,71,0.0,0.0,59,0.00,,CLR,0.00,174.00,VWS V14.01,2013-06-05 10:52:00,
2013-06-05 06:57:00,51.7,37.0,30.11,ENE,71,0.0,0.0,57,0.00,,CLR,0.00,187.00,VWS V14.01,2013-06-05 10:57:00,
2013-06-05 07:02:00,52.8,38.0,30.12,ENE,71,0.0,0.0,57,0.00,,CLR,0.00,199.00,VWS V14.01,2013-06-05 11:02:00,
2013-06-05 07:07:00,53.9,38.6,30.12,ENE,66,0.0,0.0,56,0.00,,CLR,0.00,220.00,VWS V14.01,2013-06-05 11:07:00,
2013-06-05 07:12:00,54.4,38.6,30.12,ENE,64,1.0,3.0,55,0.00,,CLR,0.00,238.00,VWS V14.01,2013-06-05 11:12:00,
2013-06-05 07:17:00,54.7,38.4,30.12,ENE,64,2.0,3.0,54,0.00,,CLR,0.00,252.00,VWS V14.01,2013-06-05 11:17:00,
2013-06-05 07:22:00,54.8,39.0,30.12,ENE,59,2.0,4.0,55,0.00,,CLR,0.00,276.00,VWS V14.01,2013-06-05 11:22:00,
2013-06-05 07:27:00,55.1,39.2,30.12,ENE,59,1.0,3.0,55,0.00,,CLR,0.00,287.00,VWS V14.01,2013-06-05 11:27:00,
2013-06-05 07:32:00,55.3,39.0,30.12,ENE,59,0.0,3.0,54,0.00,,CLR,0.00,318.00,VWS V14.01,2013-06-05 11:32:00,
2013-06-05 07:37:00,55.6,38.8,30.12,ENE,59,0.0,3.0,53,0.00,,CLR,0.00,327.00,VWS V14.01,2013-06-05 11:37:00,
2013-06-05 07:42:00,55.9,39.0,30.12,NNE,27,0.0,5.0,53,0.00,,CLR,0.00,322.00,VWS V14.01,2013-06-05 11:42:00,
2013-06-05 07:47:00,56.5,40.1,30.13,NNE,27,2.0,3.0,54,0.00,,CLR,0.00,289.00,VWS V14.01,2013-06-05 11:47:00,
2013-06-05 07:52:00,56.5,38.6,30.13,NNE,27,0.0,1.0,51,0.00,,CLR,0.00,271.00,VWS V14.01,2013-06-05 11:52:00,
2013-06-05 07:57:00,56.7,39.3,30.13,NNE,14,5.0,6.0,52,0.00,,CLR,0.00,267.00,VWS V14.01,2013-06-05 11:57:00,
2013-06-05 08:02:00,57.0,38.6,30.13,NNE,16,6.0,7.0,50,0.00,,CLR,0.00,301.00,VWS V14.01,2013-06-05 12:02:00,
2013-06-05 08:07:00,57.2,38.8,30.13,NNE,21,7.0,7.0,50,0.00,,CLR,0.00,333.00,VWS V14.01,2013-06-05 12:07:00,
2013-06-05 08:12:00,57.2,37.7,30.13,NNE,21,5.0,7.0,48,0.00,,CLR,0.00,364.00,VWS V14.01,2013-06-05 12:12:00,
2013-06-05 08:17:00,57.6,38.1,30.12,NNE,23,2.0,8.0,48,0.00,,CLR,0.00,318.00,VWS V14.01,2013-06-05 12:17:00,
2013-06-05 08:22:00,58.0,38.4,30.12,NNE,13,7.0,7.0,48,0.00,,CLR,0.00,230.00,VWS V14.01,2013-06-05 12:22:00,
2013-06-05 08:27:00,58.4,39.3,30.12,NNE,13,4.0,7.0,49,0.00,,CLR,0.00,429.00,VWS V14.01,2013-06-05 12:27:00,
2013-06-05 08:32:00,58.7,38.0,30.13,NNE,16,5.0,8.0,46,0.00,,CLR,0.00,447.00,VWS V14.01,2013-06-05 12:32:00,
2013-06-05 08:37:00,59.2,38.5,30.13,NNE,28,3.0,7.0,46,0.00,,CLR,0.00,392.00,VWS V14.01,2013-06-05 12:37:00,
2013-06-05 08:42:00,59.5,39.3,30.13,NNE,21,6.0,6.0,47,0.00,,CLR,0.00,406.00,VWS V14.01,2013-06-05 12:42:00,
2013-06-05 08:47:00,59.6,38.8,30.13,NNE,24,0.0,7.0,46,0.00,,CLR,0.00,357.00,VWS V14.01,2013-06-05 12:47:00,
2013-06-05 08:52:00,59.9,38.0,30.13,NE,45,1.0,3.0,44,0.00,,CLR,0.00,375.00,VWS V14.01,2013-06-05 12:52:00,
2013-06-05 08:57:00,60.1,39.8,30.13,NE,55,6.0,13.0,47,0.00,,CLR,0.00,487.00,VWS V14.01,2013-06-05 12:57:00,
2013-06-05 09:02:00,60.4,38.4,30.13,NNE,16,6.0,7.0,44,0.00,,CLR,0.00,514.00,VWS V14.01,2013-06-05 13:02:00,
2013-06-05 09:07:00,60.7,38.7,30.13,NNE,21,8.0,8.0,44,0.00,,CLR,0.00,544.00,VWS V14.01,2013-06-05 13:07:00,
2013-06-05 09:12:00,61.0,40.1,30.13,NNE,31,0.0,3.0,46,0.00,,CLR,0.00,581.00,VWS V14.01,2013-06-05 13:12:00,
2013-06-05 09:17:00,61.2,39.7,30.13,North,4,7.0,8.0,45,0.00,,CLR,0.00,598.00,VWS V14.01,2013-06-05 13:17:00,
2013-06-05 09:22:00,61.2,40.8,30.13,NNE,20,2.0,11.0,47,0.00,,CLR,0.00,614.00,VWS V14.01,2013-06-05 13:22:00,
2013-06-05 09:27:00,61.8,40.8,30.13,NNE,23,4.0,5.0,46,0.00,,CLR,0.00,574.00,VWS V14.01,2013-06-05 13:27:00,
2013-06-05 09:32:00,61.8,38.5,30.14,NE,56,0.0,6.0,42,0.00,,CLR,0.00,507.00,VWS V14.01,2013-06-05 13:32:00,
2013-06-05 09:37:00,62.3,39.5,30.14,ENE,58,0.0,1.0,43,0.00,,CLR,0.00,537.00,VWS V14.01,2013-06-05 13:37:00,
2013-06-05 09:42:00,62.3,40.7,30.14,NNE,30,0.0,6.0,45,0.00,,CLR,0.00,602.00,VWS V14.01,2013-06-05 13:42:00,
2013-06-05 09:47:00,63.1,40.3,30.13,ENE,69,0.0,0.0,43,0.00,,CLR,0.00,598.00,VWS V14.01,2013-06-05 13:47:00,
2013-06-05 09:52:00,63.9,39.8,30.13,East,80,0.0,0.0,41,0.00,,CLR,0.00,628.00,VWS V14.01,2013-06-05 13:52:00,
2013-06-05 09:57:00,64.5,40.9,30.13,East,80,0.0,0.0,42,0.00,,CLR,0.00,676.00,VWS V14.01,2013-06-05 13:57:00,
2013-06-05 10:02:00,63.7,38.3,30.13,SE,131,0.0,0.0,39,0.00,,CLR,0.00,684.00,VWS V14.01,2013-06-05 14:02:00,
2013-06-05 10:07:00,64.0,39.8,30.13,ENE,59,0.0,6.0,41,0.00,,CLR,0.00,679.00,VWS V14.01,2013-06-05 14:07:00,
2013-06-05 10:12:00,64.3,38.8,30.13,SE,145,0.0,5.0,39,0.00,,CLR,0.00,700.00,VWS V14.01,2013-06-05 14:12:00,
2013-06-05 10:17:00,64.3,38.8,30.13,SE,133,0.0,5.0,39,0.00,,CLR,0.00,750.00,VWS V14.01,2013-06-05 14:17:00,
2013-06-05 10:22:00,64.8,39.3,30.13,SE,124,0.0,0.0,39,0.00,,CLR,0.00,718.00,VWS V14.01,2013-06-05 14:22:00,
2013-06-05 10:27:00,65.2,39.0,30.13,ESE,116,0.0,2.0,38,0.00,,CLR,0.00,735.00,VWS V14.01,2013-06-05 14:27:00,
2013-06-05 10:32:00,65.5,38.6,30.12,NE,48,4.0,6.0,37,0.00,,CLR,0.00,799.00,VWS V14.01,2013-06-05 14:32:00,
2013-06-05 10:37:00,65.6,41.3,30.12,SSE,161,3.0,4.0,41,0.00,,CLR,0.00,737.00,VWS V14.01,2013-06-05 14:37:00,
2013-06-05 10:42:00,65.6,39.3,30.12,ENE,76,0.0,5.0,38,0.00,,CLR,0.00,758.00,VWS V14.01,2013-06-05 14:42:00,
2013-06-05 10:47:00,65.8,40.2,30.12,SSE,152,2.0,3.0,39,0.00,,CLR,0.00,776.00,VWS V14.01,2013-06-05 14:47:00,
2013-06-05 10:52:00,65.6,38.7,30.12,SSE,158,0.0,7.0,37,0.00,,CLR,0.00,670.00,VWS V14.01,2013-06-05 14:52:00,
2013-06-05 10:57:00,66.1,39.8,30.12,SSE,158,0.0,2.0,38,0.00,,CLR,0.00,792.00,VWS V14.01,2013-06-05 14:57:00,
2013-06-05 11:02:00,66.3,39.3,30.12,SSE,152,2.0,4.0,37,0.00,,CLR,0.00,767.00,VWS V14.01,2013-06-05 15:02:00,
2013-06-05 11:07:00,66.6,40.2,30.12,NE,52,3.0,3.0,38,0.00,,CLR,0.00,772.00,VWS V14.01,2013-06-05 15:07:00,
2013-06-05 11:12:00,66.3,39.3,30.12,SSE,152,1.0,3.0,37,0.00,,CLR,0.00,795.00,VWS V14.01,2013-06-05 15:12:00,
2013-06-05 11:17:00,66.8,39.7,30.12,SSW,213,2.0,7.0,37,0.00,,CLR,0.00,802.00,VWS V14.01,2013-06-05 15:17:00,
2013-06-05 11:22:00,66.6,38.8,30.12,SSE,150,0.0,8.0,36,0.00,,CLR,0.00,776.00,VWS V14.01,2013-06-05 15:22:00,
2013-06-05 11:27:00,66.6,39.5,30.12,SE,138,0.0,6.0,37,0.00,,CLR,0.00,825.00,VWS V14.01,2013-06-05 15:27:00,
2013-06-05 11:32:00,66.1,39.1,30.11,SSE,151,2.0,7.0,37,0.00,,CLR,0.00,864.00,VWS V14.01,2013-06-05 15:32:00,
2013-06-05 11:37:00,66.4,38.7,30.11,South,174,2.0,2.0,36,0.00,,CLR,0.00,788.00,VWS V14.01,2013-06-05 15:37:00,
2013-06-05 11:42:00,66.3,40.6,30.11,South,181,0.0,2.0,39,0.00,,CLR,0.00,869.00,VWS V14.01,2013-06-05 15:42:00,
2013-06-05 11:47:00,66.4,37.9,30.11,SSE,152,0.0,5.0,35,0.00,,CLR,0.00,866.00,VWS V14.01,2013-06-05 15:47:00,
2013-06-05 11:52:00,66.8,40.4,30.11,East,95,0.0,6.0,38,0.00,,CLR,0.00,871.00,VWS V14.01,2013-06-05 15:52:00,
2013-06-05 11:57:00,67.3,40.8,30.11,North,0,0.0,4.0,38,0.00,,CLR,0.00,867.00,VWS V14.01,2013-06-05 15:57:00,
2013-06-05 12:02:00,67.6,39.0,30.11,ENE,76,0.0,2.0,35,0.00,,CLR,0.00,853.00,VWS V14.01,2013-06-05 16:02:00,
2013-06-05 12:07:00,67.8,37.7,30.11,South,169,0.0,7.0,33,0.00,,CLR,0.00,876.00,VWS V14.01,2013-06-05 16:07:00,
2013-06-05 12:12:00,67.9,38.5,30.11,SW,226,0.0,5.0,34,0.00,,CLR,0.00,885.00,VWS V14.01,2013-06-05 16:12:00,
2013-06-05 12:17:00,68.3,38.1,30.10,ENE,58,2.0,3.0,33,0.00,,CLR,0.00,910.00,VWS V14.01,2013-06-05 16:17:00,
2013-06-05 12:22:00,68.4,39.7,30.10,SSE,148,1.0,4.0,35,0.00,,CLR,0.00,910.00,VWS V14.01,2013-06-05 16:22:00,
2013-06-05 12:27:00,68.8,38.5,30.10,SE,144,3.0,4.0,33,0.00,,CLR,0.00,924.00,VWS V14.01,2013-06-05 16:27:00,
2013-06-05 12:32:00,69.3,36.6,30.10,ESE,119,3.0,6.0,30,0.00,,CLR,0.00,920.00,VWS V14.01,2013-06-05 16:32:00,
2013-06-05 12:37:00,69.3,35.7,30.10,East,86,0.0,3.0,29,0.00,,CLR,0.00,941.00,VWS V14.01,2013-06-05 16:37:00,
2013-06-05 12:42:00,69.8,37.8,30.10,WSW,239,0.0,7.0,31,0.00,,CLR,0.00,954.00,VWS V14.01,2013-06-05 16:42:00,
2013-06-05 12:47:00,68.9,36.2,30.09,South,175,5.0,5.0,30,0.00,,CLR,0.00,950.00,VWS V14.01,2013-06-05 16:47:00,
2013-06-05 12:52:00,68.9,35.4,30.09,SSE,151,0.0,1.0,29,0.00,,CLR,0.00,926.00,VWS V14.01,2013-06-05 16:52:00,
2013-06-05 12:57:00,68.9,34.5,30.09,SSE,151,0.0,1.0,28,0.00,,CLR,0.00,855.00,VWS V14.01,2013-06-05 16:57:00,
2013-06-05 13:02:00,69.4,36.7,30.08,South,189,2.0,7.0,30,0.00,,CLR,0.00,838.00,VWS V14.01,2013-06-05 17:02:00,
2013-06-05 13:07:00,69.3,34.8,30.08,SW,224,0.0,7.0,28,0.00,,CLR,0.00,866.00,VWS V14.01,2013-06-05 17:07:00,
2013-06-05 13:12:00,68.8,34.4,30.08,SE,133,0.0,2.0,28,0.00,,CLR,0.00,764.00,VWS V14.01,2013-06-05 17:12:00,
2013-06-05 13:17:00,68.6,35.1,30.08,NE,54,0.0,0.0,29,0.00,,CLR,0.00,774.00,VWS V14.01,2013-06-05 17:17:00,
2013-06-05 13:22:00,68.8,36.1,30.08,SE,126,0.0,2.0,30,0.00,,CLR,0.00,804.00,VWS V14.01,2013-06-05 17:22:00,
2013-06-05 13:27:00,69.9,40.3,30.08,SE,127,0.0,1.0,34,0.00,,CLR,0.00,832.00,VWS V14.01,2013-06-05 17:27:00,
2013-06-05 13:32:00,70.6,38.5,30.08,East,96,0.0,0.0,31,0.00,,CLR,0.00,832.00,VWS V14.01,2013-06-05 17:32:00,
2013-06-05 13:37:00,71.1,39.8,30.08,East,96,0.0,0.0,32,0.00,,CLR,0.00,892.00,VWS V14.01,2013-06-05 17:37:00,
2013-06-05 13:42:00,71.8,37.9,30.08,East,96,0.0,2.0,29,0.00,,CLR,0.00,936.00,VWS V14.01,2013-06-05 17:42:00,
2013-06-05 13:47:00,70.8,37.9,30.08,NE,40,2.0,3.0,30,0.00,,CLR,0.00,934.00,VWS V14.01,2013-06-05 17:47:00,
2013-06-05 13:52:00,69.9,36.2,30.08,ESE,106,1.0,7.0,29,0.00,,CLR,0.00,933.00,VWS V14.01,2013-06-05 17:52:00,
2013-06-05 13:57:00,70.6,36.8,30.08,ESE,112,0.0,7.0,29,0.00,,CLR,0.00,948.00,VWS V14.01,2013-06-05 17:57:00,
2013-06-05 14:02:00,70.3,38.3,30.08,ESE,110,0.0,2.0,31,0.00,,CLR,0.00,952.00,VWS V14.01,2013-06-05 18:02:00,
2013-06-05 14:07:00,70.4,38.3,30.08,ESE,121,0.0,5.0,31,0.00,,CLR,0.00,918.00,VWS V14.01,2013-06-05 18:07:00,
2013-06-05 14:12:00,70.8,41.1,30.08,ESE,123,3.0,6.0,34,0.00,,CLR,0.00,915.00,VWS V14.01,2013-06-05 18:12:00,
2013-06-05 14:17:00,71.5,39.3,30.07,ESE,103,0.0,5.0,31,0.00,,CLR,0.00,926.00,VWS V14.01,2013-06-05 18:17:00,
2013-06-05 14:22:00,70.9,38.8,30.07,ESE,120,4.0,8.0,31,0.00,,CLR,0.00,903.00,VWS V14.01,2013-06-05 18:22:00,
2013-06-05 14:27:00,70.8,37.0,30.07,East,90,0.0,7.0,29,0.00,,CLR,0.00,890.00,VWS V14.01,2013-06-05 18:27:00,
2013-06-05 14:32:00,70.9,39.6,30.06,East,85,0.0,6.0,32,0.00,,CLR,0.00,887.00,VWS V14.01,2013-06-05 18:32:00,
2013-06-05 14:37:00,71.3,37.4,30.06,ESE,103,0.0,1.0,29,0.00,,CLR,0.00,880.00,VWS V14.01,2013-06-05 18:37:00,
2013-06-05 14:42:00,72.0,38.0,30.06,ESE,103,0.0,0.0,29,0.00,,CLR,0.00,876.00,VWS V14.01,2013-06-05 18:42:00,
2013-06-05 14:47:00,71.3,38.3,30.06,SE,140,1.0,5.0,30,0.00,,CLR,0.00,866.00,VWS V14.01,2013-06-05 18:47:00,
2013-06-05 14:52:00,71.1,37.3,30.06,ESE,110,4.0,10.0,29,0.00,,CLR,0.00,859.00,VWS V14.01,2013-06-05 18:52:00,
2013-06-05 14:57:00,70.8,37.0,30.06,SSE,162,0.0,0.0,29,0.00,,CLR,0.00,839.00,VWS V14.01,2013-06-05 18:57:00,
2013-06-05 15:02:00,71.5,37.6,30.05,NE,34,2.0,5.0,29,0.00,,CLR,0.00,834.00,VWS V14.01,2013-06-05 19:02:00,
2013-06-05 15:07:00,70.9,38.0,30.05,SW,223,3.0,3.0,30,0.00,,CLR,0.00,830.00,VWS V14.01,2013-06-05 19:07:00,
2013-06-05 15:12:00,71.1,36.4,30.05,SSW,198,3.0,3.0,28,0.00,,CLR,0.00,813.00,VWS V14.01,2013-06-05 19:12:00,
2013-06-05 15:17:00,71.3,38.3,30.05,East,80,2.0,5.0,30,0.00,,CLR,0.00,760.00,VWS V14.01,2013-06-05 19:17:00,
2013-06-05 15:22:00,70.8,37.0,30.05,SSE,157,0.0,6.0,29,0.00,,CLR,0.00,785.00,VWS V14.01,2013-06-05 19:22:00,
2013-06-05 15:27:00,70.9,36.2,30.05,SE,130,0.0,6.0,28,0.00,,CLR,0.00,785.00,VWS V14.01,2013-06-05 19:27:00,
2013-06-05 15:32:00,71.1,37.3,30.05,SW,236,0.0,3.0,29,0.00,,CLR,0.00,739.00,VWS V14.01,2013-06-05 19:32:00,
2013-06-05 15:37:00,71.6,40.2,30.05,SE,136,0.0,2.0,32,0.00,,CLR,0.00,787.00,VWS V14.01,2013-06-05 19:37:00,
2013-06-05 15:42:00,72.3,39.2,30.05,ESE,103,0.0,6.0,30,0.00,,CLR,0.00,760.00,VWS V14.01,2013-06-05 19:42:00,
2013-06-05 15:47:00,71.8,37.0,30.05,ESE,103,0.0,8.0,28,0.00,,CLR,0.00,723.00,VWS V14.01,2013-06-05 19:47:00,
2013-06-05 15:52:00,71.5,35.8,30.05,East,97,3.0,8.0,27,0.00,,CLR,0.00,748.00,VWS V14.01,2013-06-05 19:52:00,
2013-06-05 15:57:00,71.1,38.1,30.05,East,80,0.0,0.0,30,0.00,,CLR,0.00,709.00,VWS V14.01,2013-06-05 19:57:00,
2013-06-05 16:02:00,71.1,37.3,30.06,East,86,0.0,3.0,29,0.00,,CLR,0.00,672.00,VWS V14.01,2013-06-05 20:02:00,
2013-06-05 16:07:00,71.1,36.4,30.06,East,93,0.0,7.0,28,0.00,,CLR,0.00,716.00,VWS V14.01,2013-06-05 20:07:00,
2013-06-05 16:12:00,71.8,39.6,30.06,SE,141,1.0,2.0,31,0.00,,CLR,0.00,623.00,VWS V14.01,2013-06-05 20:12:00,
2013-06-05 16:17:00,72.0,36.2,30.05,SE,131,0.0,6.0,27,0.00,,CLR,0.00,674.00,VWS V14.01,2013-06-05 20:17:00,
2013-06-05 16:22:00,71.5,36.7,30.05,East,97,2.0,5.0,28,0.00,,CLR,0.00,648.00,VWS V14.01,2013-06-05 20:22:00,
2013-06-05 16:27:00,71.3,35.6,30.05,SE,141,0.0,7.0,27,0.00,,CLR,0.00,644.00,VWS V14.01,2013-06-05 20:27:00,
2013-06-05 16:32:00,70.9,35.3,30.06,SW,219,6.0,10.0,27,0.00,,CLR,0.00,635.00,VWS V14.01,2013-06-05 20:32:00,
2013-06-05 16:37:00,70.8,37.0,30.06,SSE,158,0.0,0.0,29,0.00,,CLR,0.00,609.00,VWS V14.01,2013-06-05 20:37:00,
2013-06-05 16:42:00,70.9,36.2,30.06,SSE,161,1.0,7.0,28,0.00,,CLR,0.00,618.00,VWS V14.01,2013-06-05 20:42:00,
2013-06-05 16:47:00,70.8,35.2,30.06,SSE,162,2.0,6.0,27,0.00,,CLR,0.00,558.00,VWS V14.01,2013-06-05 20:47:00,
2013-06-05 16:52:00,70.4,38.3,30.06,SSE,157,3.0,6.0,31,0.00,,CLR,0.00,558.00,VWS V14.01,2013-06-05 20:52:00,
2013-06-05 16:57:00,70.4,36.7,30.06,East,83,1.0,7.0,29,0.00,,CLR,0.00,561.00,VWS V14.01,2013-06-05 20:57:00,
2013-06-05 17:02:00,70.9,38.0,30.06,East,96,0.0,3.0,30,0.00,,CLR,0.00,544.00,VWS V14.01,2013-06-05 21:02:00,
2013-06-05 17:07:00,71.5,36.7,30.06,South,174,0.0,1.0,28,0.00,,CLR,0.00,538.00,VWS V14.01,2013-06-05 21:07:00,
2013-06-05 17:12:00,71.6,36.8,30.06,South,184,2.0,2.0,28,0.00,,CLR,0.00,503.00,VWS V14.01,2013-06-05 21:12:00,
2013-06-05 17:17:00,71.8,37.9,30.05,SE,145,2.0,6.0,29,0.00,,CLR,0.00,503.00,VWS V14.01,2013-06-05 21:17:00,
2013-06-05 17:22:00,71.6,36.8,30.05,SSE,147,0.0,5.0,28,0.00,,CLR,0.00,491.00,VWS V14.01,2013-06-05 21:22:00,
2013-06-05 17:27:00,71.6,36.8,30.05,SSE,152,2.0,3.0,28,0.00,,CLR,0.00,475.00,VWS V14.01,2013-06-05 21:27:00,
2013-06-05 17:32:00,71.5,36.7,30.05,SW,226,0.0,0.0,28,0.00,,CLR,0.00,459.00,VWS V14.01,2013-06-05 21:32:00,
2013-06-05 17:37:00,71.8,37.9,30.05,SE,128,6.0,6.0,29,0.00,,CLR,0.00,431.00,VWS V14.01,2013-06-05 21:37:00,
2013-06-05 17:42:00,70.9,36.2,30.05,SE,143,2.0,5.0,28,0.00,,CLR,0.00,422.00,VWS V14.01,2013-06-05 21:42:00,
2013-06-05 17:47:00,70.9,37.1,30.05,SE,143,0.0,0.0,29,0.00,,CLR,0.00,399.00,VWS V14.01,2013-06-05 21:47:00,
2013-06-05 17:52:00,71.5,37.6,30.05,SE,144,0.0,0.0,29,0.00,,CLR,0.00,391.00,VWS V14.01,2013-06-05 21:52:00,
2013-06-05 17:57:00,70.9,36.2,30.05,ESE,120,0.0,8.0,28,0.00,,CLR,0.00,384.00,VWS V14.01,2013-06-05 21:57:00,
2013-06-05 18:02:00,70.4,38.3,30.06,SSE,157,3.0,5.0,31,0.00,,CLR,0.00,371.00,VWS V14.01,2013-06-05 22:02:00,
2013-06-05 18:07:00,70.4,37.5,30.06,ESE,121,0.0,6.0,30,0.00,,CLR,0.00,345.00,VWS V14.01,2013-06-05 22:07:00,
2013-06-05 18:12:00,70.3,36.6,30.06,ESE,116,0.0,6.0,29,0.00,,CLR,0.00,318.00,VWS V14.01,2013-06-05 22:12:00,
2013-06-05 18:17:00,69.8,37.8,30.05,ESE,119,1.0,3.0,31,0.00,,CLR,0.00,297.00,VWS V14.01,2013-06-05 22:17:00,
2013-06-05 18:22:00,69.6,37.7,30.05,ESE,102,0.0,3.0,31,0.00,,CLR,0.00,297.00,VWS V14.01,2013-06-05 22:22:00,
2013-06-05 18:27:00,69.6,37.7,30.05,SE,143,0.0,3.0,31,0.00,,CLR,0.00,296.00,VWS V14.01,2013-06-05 22:27:00,
2013-06-05 18:32:00,69.6,38.5,30.04,SE,127,0.0,2.0,32,0.00,,CLR,0.00,274.00,VWS V14.01,2013-06-05 22:32:00,
2013-06-05 18:37:00,69.3,36.6,30.04,ESE,107,1.0,4.0,30,0.00,,CLR,0.00,252.00,VWS V14.01,2013-06-05 22:37:00,
2013-06-05 18:42:00,68.9,37.8,30.04,SE,128,0.0,3.0,32,0.00,,CLR,0.00,250.00,VWS V14.01,2013-06-05 22:42:00,
2013-06-05 18:47:00,69.3,37.4,30.04,SE,128,0.0,0.0,31,0.00,,CLR,0.00,236.00,VWS V14.01,2013-06-05 22:47:00,
2013-06-05 18:52:00,69.1,38.0,30.04,SE,133,2.0,3.0,32,0.00,,CLR,0.00,213.00,VWS V14.01,2013-06-05 22:52:00,
2013-06-05 18:57:00,68.9,37.8,30.04,ESE,112,1.0,4.0,32,0.00,,CLR,0.00,55.00,VWS V14.01,2013-06-05 22:57:00,
2013-06-05 19:02:00,68.4,37.4,30.04,SSE,160,2.0,3.0,32,0.00,,CLR,0.00,51.00,VWS V14.01,2013-06-05 23:02:00,
2013-06-05 19:07:00,68.1,37.2,30.04,SSE,160,0.0,6.0,32,0.00,,CLR,0.00,48.00,VWS V14.01,2013-06-05 23:07:00,
2013-06-05 19:12:00,67.6,39.0,30.04,ENE,58,0.0,3.0,35,0.00,,CLR,0.00,44.00,VWS V14.01,2013-06-05 23:12:00,
2013-06-05 19:17:00,67.6,37.5,30.04,SE,127,1.0,5.0,33,0.00,,CLR,0.00,40.00,VWS V14.01,2013-06-05 23:17:00,
2013-06-05 19:22:00,67.4,38.1,30.04,ESE,119,3.0,3.0,34,0.00,,CLR,0.00,39.00,VWS V14.01,2013-06-05 23:22:00,
2013-06-05 19:27:00,66.9,37.7,30.04,East,92,2.0,6.0,34,0.00,,CLR,0.00,35.00,VWS V14.01,2013-06-05 23:27:00,
2013-06-05 19:32:00,66.8,38.3,30.04,East,99,0.0,3.0,35,0.00,,CLR,0.00,33.00,VWS V14.01,2013-06-05 23:32:00,
2013-06-05 19:37:00,66.6,38.1,30.04,ESE,107,0.0,7.0,35,0.00,,CLR,0.00,28.00,VWS V14.01,2013-06-05 23:37:00,
2013-06-05 19:42:00,66.4,40.0,30.04,West,280,0.0,2.0,38,0.00,,CLR,0.00,26.00,VWS V14.01,2013-06-05 23:42:00,
2013-06-05 19:47:00,66.1,38.4,30.04,ENE,68,0.0,1.0,36,0.00,,CLR,0.00,23.00,VWS V14.01,2013-06-05 23:47:00,
2013-06-05 19:52:00,66.0,39.0,30.04,ENE,69,0.0,0.0,37,0.00,,CLR,0.00,19.00,VWS V14.01,2013-06-05 23:52:00,
2013-06-05 19:57:00,65.6,40.0,30.04,East,96,0.0,0.0,39,0.00,,CLR,0.00,16.00,VWS V14.01,2013-06-05 23:57:00,
2013-06-05 20:02:00,65.3,39.7,30.05,East,96,0.0,0.0,39,0.00,,CLR,0.00,14.00,VWS V14.01,2013-06-06 00:02:00,
2013-06-05 20:07:00,65.0,39.5,30.05,East,100,0.0,0.0,39,0.00,,CLR,0.00,12.00,VWS V14.01,2013-06-06 00:07:00,
2013-06-05 20:12:00,64.7,39.8,30.05,East,100,0.0,0.0,40,0.00,,CLR,0.00,9.00,VWS V14.01,2013-06-06 00:12:00,
2013-06-05 20:17:00,64.5,39.7,30.04,East,100,0.0,0.0,40,0.00,,CLR,0.00,7.00,VWS V14.01,2013-06-06 00:17:00,
2013-06-05 20:22:00,64.2,40.7,30.04,East,100,0.0,0.0,42,0.00,,CLR,0.00,0.00,VWS V14.01,2013-06-06 00:22:00,
2013-06-05 20:27:00,63.9,39.8,30.04,East,100,0.0,0.0,41,0.00,,CLR,0.00,0.00,VWS V14.01,2013-06-06 00:27:00,
2013-06-05 20:32:00,63.5,40.0,30.04,East,100,0.0,0.0,42,0.00,,CLR,0.00,0.00,VWS V14.01,2013-06-06 00:32:00,
2013-06-05 20:37:00,63.2,39.8,30.04,East,100,0.0,0.0,42,0.00,,CLR,0.00,0.00,VWS V14.01,2013-06-06 00:37:00,
2013-06-05 20:42:00,62.9,39.5,30.04,East,100,0.0,0.0,42,0.00,,CLR,0.00,0.00,VWS V14.01,2013-06-06 00:42:00,
2013-06-05 20:47:00,62.7,39.3,30.05,East,100,0.0,0.0,42,0.00,,CLR,0.00,0.00,VWS V14.01,2013-06-06 00:47:00,
2013-06-05 20:52:00,62.4,39.6,30.05,East,100,0.0,0.0,43,0.00,,CLR,0.00,0.00,VWS V14.01,2013-06-06 00:52:00,
2013-06-05 20:57:00,62.3,40.1,30.05,East,100,0.0,0.0,44,0.00,,CLR,0.00,0.00,VWS V14.01,2013-06-06 00:57:00,
2013-06-05 21:02:00,62.1,40.0,30.05,East,100,0.0,0.0,44,0.00,,CLR,0.00,0.00,VWS V14.01,2013-06-06 01:02:00,
2013-06-05 21:07:00,62.0,40.4,30.05,East,100,0.0,0.0,45,0.00,,CLR,0.00,0.00,VWS V14.01,2013-06-06 01:07:00,
2013-06-05 21:12:00,61.6,40.6,30.05,East,100,0.0,0.0,46,0.00,,CLR,0.00,0.00,VWS V14.01,2013-06-06 01:12:00,
2013-06-05 21:17:00,61.3,40.9,30.06,East,100,0.0,0.0,47,0.00,,CLR,0.00,0.00,VWS V14.01,2013-06-06 01:17:00,
2013-06-05 21:22:00,61.0,40.7,30.06,East,100,0.0,0.0,47,0.00,,CLR,0.00,0.00,VWS V14.01,2013-06-06 01:22:00,
2013-06-05 21:27:00,60.9,40.5,30.06,East,100,0.0,0.0,47,0.00,,CLR,0.00,0.00,VWS V14.01,2013-06-06 01:27:00,
2013-06-05 21:32:00,60.7,40.9,30.06,East,100,0.0,0.0,48,0.00,,CLR,0.00,0.00,VWS V14.01,2013-06-06 01:32:00,
2013-06-05 21:37:00,60.4,41.2,30.06,East,100,0.0,0.0,49,0.00,,CLR,0.00,0.00,VWS V14.01,2013-06-06 01:37:00,
2013-06-05 21:42:00,60.2,42.0,30.06,East,100,0.0,0.0,51,0.00,,CLR,0.00,0.00,VWS V14.01,2013-06-06 01:42:00,
2013-06-05 21:47:00,59.9,41.8,30.07,East,100,0.0,0.0,51,0.00,,CLR,0.00,0.00,VWS V14.01,2013-06-06 01:47:00,
2013-06-05 21:52:00,59.8,42.2,30.07,East,100,0.0,0.0,52,0.00,,CLR,0.00,0.00,VWS V14.01,2013-06-06 01:52:00,
2013-06-05 21:57:00,59.6,41.5,30.07,East,100,0.0,0.0,51,0.00,,CLR,0.00,0.00,VWS V14.01,2013-06-06 01:57:00,
2013-06-05 22:02:00,59.5,41.9,30.06,East,95,0.0,0.0,52,0.00,,CLR,0.00,0.00,VWS V14.01,2013-06-06 02:02:00,
2013-06-05 22:07:00,59.3,41.7,30.06,East,100,0.0,0.0,52,0.00,,CLR,0.00,0.00,VWS V14.01,2013-06-06 02:07:00,
2013-06-05 22:12:00,59.0,41.9,30.06,East,100,0.0,0.0,53,0.00,,CLR,0.00,0.00,VWS V14.01,2013-06-06 02:12:00,
2013-06-05 22:17:00,58.9,41.8,30.07,East,100,0.0,0.0,53,0.00,,CLR,0.00,0.00,VWS V14.01,2013-06-06 02:17:00,
2013-06-05 22:22:00,58.7,41.6,30.07,East,100,0.0,0.0,53,0.00,,CLR,0.00,0.00,VWS V14.01,2013-06-06 02:22:00,
2013-06-05 22:27:00,58.6,41.5,30.07,East,100,0.0,0.0,53,0.00,,CLR,0.00,0.00,VWS V14.01,2013-06-06 02:27:00,
2013-06-05 22:32:00,58.4,41.8,30.08,East,100,0.0,0.0,54,0.00,,CLR,0.00,0.00,VWS V14.01,2013-06-06 02:32:00,
2013-06-05 22:37:00,58.3,41.8,30.08,East,100,0.0,0.0,54,0.00,,CLR,0.00,0.00,VWS V14.01,2013-06-06 02:37:00,
2013-06-05 22:42:00,57.8,42.7,30.08,East,100,0.0,0.0,57,0.00,,CLR,0.00,0.00,VWS V14.01,2013-06-06 02:42:00,
2013-06-05 22:47:00,57.5,43.3,30.07,East,100,0.0,0.0,59,0.00,,CLR,0.00,0.00,VWS V14.01,2013-06-06 02:47:00,
2013-06-05 22:52:00,57.3,43.5,30.07,East,100,0.0,0.0,60,0.00,,CLR,0.00,0.00,VWS V14.01,2013-06-06 02:52:00,
2013-06-05 22:57:00,57.2,43.9,30.07,East,100,0.0,0.0,61,0.00,,CLR,0.00,0.00,VWS V14.01,2013-06-06 02:57:00,
2013-06-05 23:02:00,57.0,44.1,30.06,East,100,0.0,0.0,62,0.00,,CLR,0.00,0.00,VWS V14.01,2013-06-06 03:02:00,
2013-06-05 23:07:00,56.7,43.8,30.06,East,100,0.0,0.0,62,0.00,,CLR,0.00,0.00,VWS V14.01,2013-06-06 03:07:00,
2013-06-05 23:12:00,56.6,44.2,30.06,East,100,0.0,0.0,63,0.00,,CLR,0.00,0.00,VWS V14.01,2013-06-06 03:12:00,
2013-06-05 23:17:00,56.7,44.7,30.06,East,100,0.0,0.0,64,0.00,,CLR,0.00,0.00,VWS V14.01,2013-06-06 03:17:00,
2013-06-05 23:22:00,56.7,45.5,30.06,East,100,0.0,0.0,66,0.00,,CLR,0.00,0.00,VWS V14.01,2013-06-06 03:22:00,
2013-06-05 23:27:00,56.7,45.9,30.06,East,100,0.0,0.0,67,0.00,,CLR,0.00,0.00,VWS V14.01,2013-06-06 03:27:00,
2013-06-05 23:32:00,56.5,45.7,30.07,East,100,0.0,0.0,67,0.00,,CLR,0.00,0.00,VWS V14.01,2013-06-06 03:32:00,
2013-06-05 23:37:00,56.0,45.2,30.07,East,100,0.0,0.0,67,0.00,,CLR,0.00,0.00,VWS V14.01,2013-06-06 03:37:00,
2013-06-05 23:42:00,55.7,45.3,30.07,East,100,0.0,0.0,68,0.00,,CLR,0.00,0.00,VWS V14.01,2013-06-06 03:42:00,
2013-06-05 23:47:00,55.6,45.2,30.07,East,100,0.0,0.0,68,0.00,,CLR,0.00,0.00,VWS V14.01,2013-06-06 03:47:00,
2013-06-05 23:52:00,55.4,45.0,30.07,East,100,0.0,0.0,68,0.00,,CLR,0.00,0.00,VWS V14.01,2013-06-06 03:52:00,
2013-06-05 23:57:00,55.4,45.8,30.07,East,100,0.0,0.0,70,0.00,,CLR,0.00,0.00,VWS V14.01,2013-06-06 03:57:00,